»·PEaware :: N374ED KYKM-KPDX

N374ED :: KYKM-KPDX

FLIGHT INFORMATION

Flight Status: Arrived
Operator: Privately registered:
United States
More flights under this callsign
Pilot: Eric D. (9648)
Aircraft: BEECH AIRCRAFT BARON
(BE58)
More flights by this aircraft type
Origin: KYKM Yakima Air Term/Mcallister
United States
Destination: KPDX Portland Intl
United States
More flights between these airports :: More routes between these airports
Route: +GROMO4 SIMCO TROTS V468 BTG
File this flight plan on PilotEdge
Remarks:
Altitude:
(Current/Filed)
16,000ft
Speed:
(Current/Filed)
180kts
Departed: 06-May-20 09:08 AM
Arrived: 06-May-20 09:59 AM
Distance/Time
Traveled:
103nm/0:51
Distance/Time
To Go:
Arrived

Flight Plot

Page will automatically refresh every two minutes.


Map Options




Map Legend


Flown Route
Filed Route
Departure Airport
Arrival Airport
Navaid (VOR, NDB)
Fix

Horizontal Profiles

Position Reports

Time Latitude Longitude Heading Altitude Ground
Speed
06-May-20 08:10 46.568873 -120.532036 237 1053ft 0kts
06-May-20 08:11 46.568873 -120.532036 237 1053ft 0kts
06-May-20 08:12 46.568873 -120.532036 237 1053ft 0kts
06-May-20 08:13 46.568873 -120.532036 237 1053ft 0kts
06-May-20 08:14 46.568873 -120.532036 237 1053ft 0kts
06-May-20 08:15 46.568873 -120.532036 237 1053ft 0kts
06-May-20 08:16 46.568873 -120.532036 237 1053ft 0kts
06-May-20 08:17 46.568873 -120.532036 237 1053ft 0kts
06-May-20 08:18 46.568873 -120.532036 237 1053ft 0kts
06-May-20 08:19 46.568873 -120.532036 237 1053ft 0kts
06-May-20 08:20 46.568873 -120.532036 237 1053ft 0kts
06-May-20 08:21 46.568873 -120.532036 237 1053ft 0kts
06-May-20 08:22 46.568873 -120.532036 237 1053ft 0kts
06-May-20 08:23 46.568873 -120.532036 237 1053ft 0kts
06-May-20 08:24 46.568873 -120.532036 237 1053ft 0kts
06-May-20 08:25 46.568873 -120.532036 237 1053ft 0kts
06-May-20 08:26 46.568873 -120.532036 237 1053ft 0kts
06-May-20 08:27 46.568873 -120.532036 237 1053ft 0kts
06-May-20 08:28 46.568873 -120.532036 237 1053ft 0kts
06-May-20 08:29 46.568873 -120.532036 237 1053ft 0kts
06-May-20 08:30 46.568873 -120.532036 237 1053ft 0kts
06-May-20 08:31 46.568873 -120.532036 237 1053ft 0kts
06-May-20 08:32 46.568873 -120.532036 237 1053ft 0kts
06-May-20 08:33 46.568873 -120.532036 237 1053ft 0kts
06-May-20 08:34 46.568873 -120.532036 237 1053ft 0kts
06-May-20 08:35 46.568873 -120.532036 237 1053ft 0kts
06-May-20 08:36 46.568873 -120.532036 237 1053ft 0kts
06-May-20 08:37 46.568873 -120.532036 237 1053ft 0kts
06-May-20 08:38 46.568873 -120.532036 237 1053ft 0kts
06-May-20 08:39 46.568873 -120.532036 237 1053ft 0kts
06-May-20 08:40 46.568873 -120.532036 237 1053ft 0kts
06-May-20 08:41 46.568873 -120.532036 237 1053ft 0kts
06-May-20 08:42 46.568873 -120.532036 237 1053ft 0kts
06-May-20 08:43 46.568873 -120.532036 237 1053ft 0kts
06-May-20 08:44 46.568873 -120.532036 237 1053ft 0kts
06-May-20 08:45 46.568873 -120.532036 237 1053ft 0kts
06-May-20 08:46 46.568873 -120.532036 237 1053ft 0kts
06-May-20 08:47 46.568873 -120.532036 237 1053ft 0kts
06-May-20 08:48 46.568873 -120.532036 237 1053ft 0kts
06-May-20 08:49 46.568873 -120.532036 237 1053ft 0kts
06-May-20 08:50 46.568873 -120.532036 237 1053ft 0kts
06-May-20 08:51 46.568873 -120.532036 237 1053ft 0kts
06-May-20 08:52 46.568873 -120.532036 237 1053ft 0kts
06-May-20 08:53 46.568873 -120.532036 237 1053ft 0kts
06-May-20 08:54 46.568873 -120.532036 237 1053ft 0kts
06-May-20 08:55 46.568873 -120.532036 237 1053ft 0kts
06-May-20 08:56 46.568873 -120.532036 237 1053ft 0kts
06-May-20 08:57 46.568873 -120.532036 237 1053ft 0kts
06-May-20 08:58 46.568873 -120.532036 237 1053ft 0kts
06-May-20 08:59 46.568873 -120.532036 237 1053ft 0kts
06-May-20 09:00 46.568873 -120.532036 237 1053ft 0kts
06-May-20 09:01 46.568873 -120.532036 237 1053ft 0kts
06-May-20 09:02 46.568873 -120.532036 237 1053ft 0kts
06-May-20 09:03 46.568873 -120.532036 237 1053ft 0kts
06-May-20 09:04 46.567850 -120.531519 177 1051ft 14kts
06-May-20 09:05 46.566646 -120.531499 179 1051ft 0kts
06-May-20 09:06 46.565913 -120.533087 287 1053ft 33kts
06-May-20 09:07 46.573988 -120.573287 260 2333ft 120kts
06-May-20 09:08 46.572020 -120.621442 271 3882ft 118kts
06-May-20 09:09 46.569677 -120.668703 227 5296ft 126kts
06-May-20 09:10 46.535611 -120.658024 166 6659ft 132kts
06-May-20 09:12 46.500457 -120.639448 174 7837ft 135kts
06-May-20 09:13 46.482873 -120.675837 251 9049ft 114kts
06-May-20 09:14 46.468991 -120.717912 243 10013ft 124kts
06-May-20 09:15 46.452290 -120.763228 242 10888ft 128kts
06-May-20 09:16 46.435492 -120.808270 242 11783ft 125kts
06-May-20 09:17 46.418798 -120.852978 242 12548ft 128kts
06-May-20 09:18 46.401091 -120.900357 242 13271ft 140kts
06-May-20 09:19 46.382052 -120.951160 242 13982ft 145kts
06-May-20 09:20 46.362665 -121.002660 244 14687ft 145kts
06-May-20 09:21 46.343650 -121.053158 245 15388ft 140kts
06-May-20 09:22 46.326220 -121.099400 246 16026ft 136kts
06-May-20 09:23 46.306326 -121.152369 247 16012ft 161kts
06-May-20 09:24 46.278561 -121.202534 198 14218ft 185kts
06-May-20 09:25 46.228004 -121.208144 195 12457ft 177kts
06-May-20 09:26 46.181903 -121.212010 195 11129ft 158kts
06-May-20 09:27 46.143028 -121.224867 226 9819ft 133kts
06-May-20 09:27 46.122491 -121.254866 238 8731ft 125kts
06-May-20 09:29 46.095810 -121.297623 241 7481ft 98kts
06-May-20 09:29 46.077893 -121.325095 238 8206ft 123kts
06-May-20 09:30 46.054063 -121.363457 237 9272ft 130kts
06-May-20 09:32 46.025040 -121.409782 237 10161ft 151kts
06-May-20 09:32 45.999197 -121.450816 235 10156ft 174kts
06-May-20 09:33 45.965797 -121.503236 235 10154ft 179kts
06-May-20 09:34 45.937391 -121.560082 258 10155ft 171kts
06-May-20 09:35 45.924510 -121.626183 260 10153ft 171kts
06-May-20 09:36 45.912379 -121.693236 260 10160ft 172kts
06-May-20 09:37 45.900446 -121.759961 259 10176ft 171kts
06-May-20 09:38 45.888521 -121.826359 259 10146ft 172kts
06-May-20 09:39 45.867778 -121.893008 252 9136ft 186kts
06-May-20 09:40 45.832257 -121.946240 226 8124ft 185kts
06-May-20 09:41 45.793945 -121.994418 226 7129ft 182kts
06-May-20 09:42 45.756558 -122.042856 225 6237ft 175kts
06-May-20 09:43 45.723270 -122.085666 225 6216ft 151kts
06-May-20 09:44 45.691059 -122.125556 225 5828ft 164kts
06-May-20 09:45 45.656415 -122.171986 225 5013ft 173kts
06-May-20 09:46 45.623969 -122.215888 225 4453ft 140kts
06-May-20 09:47 45.598619 -122.249957 226 3872ft 113kts
06-May-20 09:48 45.576429 -122.280401 226 3180ft 113kts
06-May-20 09:49 45.555260 -122.309892 226 2991ft 107kts
06-May-20 09:50 45.533412 -122.340273 225 2989ft 106kts
06-May-20 09:51 45.513693 -122.372429 260 2991ft 113kts
06-May-20 09:52 45.523322 -122.412643 287 2645ft 97kts
06-May-20 09:53 45.536087 -122.444674 290 2139ft 94kts
06-May-20 09:54 45.548813 -122.477496 293 1621ft 94kts
06-May-20 09:55 45.561280 -122.509657 295 997ft 92kts
06-May-20 09:56 45.573861 -122.542141 299 457ft 95kts
06-May-20 09:57 45.586656 -122.574757 300 29ft 69kts
06-May-20 09:58 45.588601 -122.582232 210 29ft 2kts
06-May-20 09:59 45.586809 -122.578494 157 27ft 13kts

Navigation Log

Ident Type
Flight plan parsing failed, navigation log unavailable